logo
Search for airport 
image banner adimage banner adimage banner ad
image banner ad

LGIO - Ioannina/ King Pyrros

Located in Ioannina, Greece

ICAO - LGIO, IATA - IOA

Data provided by Airmate  

General information

Coordinates: N39°41'50" E20°49'19"
Elevation is 1557 feet MSL.
 
View others Airports in Ioannina

Operational data

Special qualification required
Current time UTC:
Current local time:
Weather
METAR: LGIO 152120Z AUTO VRB01KT //// // ////// 14/09 Q1018 RE//
TAF: TAF LGIO 152000Z 1521/1606 VRB03KT CAVOK BECMG 1602/1604 SCT025 BKN080
View NOTAMs / SUP AIP / TFR affecting this airport [VIEW]
Communications frequencies: [VIEW]

Runways:

RWY identifierQFULength (ft)Width (ft)SurfaceLDA (ft)
14142°7881148ASP
32322°7881148ASP

Airport contact information

Address: Ioannina Greece

Handlers

Alpha Jet Services

Alpha Jet Services
[VIEW][VIEW]
+306946200300

Jetset Services

Jetset Services

Pandair

Pandair

Skyserv Handling Services

Skyserv Handling Services
[VIEW][VIEW]
+306936093745

Satellite view of LGIO